Time;durP1;ratioP1;P1;durP2;ratioP2;P2;SDS_P1;SDS_P2;PMS_P1;PMS_P2;Temp;Humidity;BMP_temperature;BMP_pressure;BME280_temperature;BME280_humidity;BME280_pressure;Samples;Min_cycle;Max_cycle;Signal;HPM_P1;HPM_P2
2024/03/02 00:00:13;;;;;;;16.27;10.88;;;;;;;8.77;70.72;98762.72;4159578;28;20021;-69
2024/03/02 00:02:14;;;;;;;16.83;10.75;;;;;;;8.80;70.54;98755.22;4143357;28;20080;-71
2024/03/02 00:04:15;;;;;;;17.88;12.18;;;;;;;8.76;70.73;98759.22;4130228;28;20061;-70
2024/03/02 00:06:21;;;;;;;19.25;12.63;;;;;;;8.74;70.63;98750.56;4143152;28;20035;-70
2024/03/02 00:08:25;;;;;;;18.15;12.32;;;;;;;8.71;70.75;98756.22;4146737;28;20501;-71
2024/03/02 00:10:42;;;;;;;18.75;13.32;;;;;;;8.59;71.31;98750.38;4146903;28;20018;-72
2024/03/02 00:12:43;;;;;;;21.58;14.63;;;;;;;8.58;71.38;98752.22;4146747;28;20433;-71
2024/03/02 00:14:43;;;;;;;18.05;12.20;;;;;;;8.68;71.11;98749.38;4147270;28;20076;-70
2024/03/02 00:16:44;;;;;;;17.52;12.95;;;;;;;8.63;71.32;98751.72;4146146;28;20037;-71
2024/03/02 00:18:45;;;;;;;20.80;13.45;;;;;;;8.66;71.28;98750.56;4141309;28;20037;-70
2024/03/02 00:20:45;;;;;;;20.02;13.38;;;;;;;8.72;71.10;98747.22;4144379;28;20649;-71
2024/03/02 00:22:46;;;;;;;19.60;13.55;;;;;;;8.77;70.92;98744.06;4146743;28;20033;-70
2024/03/02 00:24:47;;;;;;;18.73;13.50;;;;;;;8.70;71.22;98735.88;4146907;28;20026;-71
2024/03/02 00:26:47;;;;;;;21.58;12.65;;;;;;;8.68;71.27;98741.41;4146205;28;20033;-71
2024/03/02 00:28:50;;;;;;;20.73;13.07;;;;;;;8.69;71.16;98747.56;4145316;28;20041;-70
2024/03/02 00:31:09;;;;;;;19.85;12.90;;;;;;;8.73;70.94;98748.91;4146366;28;20045;-70
2024/03/02 00:33:10;;;;;;;15.15;10.50;;;;;;;8.77;70.92;98746.72;4144738;28;20033;-71
2024/03/02 00:35:11;;;;;;;;;;;;;;;8.76;71.15;98737.06;4147416;28;20111;-71
2024/03/02 00:37:12;;;;;;;18.00;12.55;;;;;;;8.74;71.00;98750.56;4146742;28;19913;-71
2024/03/02 00:39:14;;;;;;;20.13;13.48;;;;;;;8.66;71.26;98758.56;4145363;28;20026;-71
2024/03/02 00:41:27;;;;;;;21.83;12.77;;;;;;;8.76;71.23;98758.38;4130540;28;20141;-71
2024/03/02 00:43:41;;;;;;;17.58;11.60;;;;;;;8.74;70.94;98761.22;4130319;28;20487;-70
2024/03/02 00:45:42;;;;;;;16.73;11.68;;;;;;;8.78;70.98;98757.25;4130786;28;20476;-71
2024/03/02 00:47:42;;;;;;;17.52;11.05;;;;;;;8.85;70.79;98752.91;4129973;28;20035;-71
2024/03/02 00:49:47;;;;;;;19.48;11.10;;;;;;;8.84;70.85;98755.72;4130306;28;20045;-71
2024/03/02 00:51:50;;;;;;;16.30;11.77;;;;;;;8.81;70.92;98756.06;4130555;28;20113;-71
2024/03/02 00:53:55;;;;;;;18.92;11.77;;;;;;;8.79;71.01;98748.22;4130182;28;20146;-71
2024/03/02 00:55:56;;;;;;;19.02;12.55;;;;;;;8.80;70.90;98751.75;4129871;28;20018;-71
2024/03/02 00:57:57;;;;;;;18.73;12.80;;;;;;;8.76;70.99;98740.59;4130882;28;20038;-71
2024/03/02 00:59:58;;;;;;;;;;;;;;;8.70;71.61;98738.56;4131198;28;20502;-71
2024/03/02 01:01:59;;;;;;;19.50;12.88;;;;;;;8.70;71.11;98747.41;4128977;28;19909;-71
2024/03/02 01:04:00;;;;;;;17.83;11.93;;;;;;;8.75;71.10;98744.25;4133634;28;20022;-70
2024/03/02 01:06:01;;;;;;;16.85;11.68;;;;;;;8.72;71.22;98744.56;4145976;28;20050;-71
2024/03/02 01:08:01;;;;;;;18.23;12.88;;;;;;;8.73;71.19;98743.56;4144205;28;20101;-70
2024/03/02 01:10:03;;;;;;;19.92;14.20;;;;;;;8.71;71.32;98740.22;4131905;28;20034;-71
2024/03/02 01:12:05;;;;;;;21.45;13.05;;;;;;;8.80;71.07;98739.25;4133034;28;20041;-69
2024/03/02 01:14:06;;;;;;;17.73;11.95;;;;;;;8.84;70.83;98740.59;4132938;28;20033;-69
2024/03/02 01:16:06;;;;;;;16.40;11.60;;;;;;;8.84;70.84;98735.25;4145662;28;20030;-71
2024/03/02 01:18:07;;;;;;;16.55;12.63;;;;;;;8.77;71.11;98736.06;4149000;28;20022;-70
2024/03/02 01:20:09;;;;;;;15.38;10.80;;;;;;;8.84;70.67;98739.75;4147709;28;20662;-70
2024/03/02 01:22:10;;;;;;;17.60;12.30;;;;;;;8.90;70.53;98739.09;4148604;28;20617;-70
2024/03/02 01:24:10;;;;;;;16.73;10.82;;;;;;;8.90;70.33;98739.09;4148629;28;20026;-71
2024/03/02 01:26:11;;;;;;;13.32;9.55;;;;;;;8.99;69.98;98726.59;4148380;28;20029;-71
2024/03/02 01:28:12;;;;;;;13.68;9.38;;;;;;;9.04;69.64;98730.41;4148609;28;20087;-71
2024/03/02 01:30:13;;;;;;;13.57;9.20;;;;;;;9.08;69.53;98722.09;4148308;28;20033;-71
2024/03/02 01:32:14;;;;;;;12.95;8.90;;;;;;;9.04;69.21;98725.09;4147878;28;20022;-71
2024/03/02 01:34:14;;;;;;;13.20;8.70;;;;;;;9.11;69.08;98730.59;4149067;28;20029;-72
2024/03/02 01:36:15;;;;;;;13.50;8.77;;;;;;;9.13;68.77;98738.41;4149028;28;20483;-72
2024/03/02 01:38:16;;;;;;;12.93;9.13;;;;;;;9.08;68.74;98741.56;4148686;28;20391;-70
2024/03/02 01:40:17;;;;;;;14.40;9.82;;;;;;;9.18;68.31;98731.56;4148498;28;20026;-70
2024/03/02 01:42:17;;;;;;;13.40;8.93;;;;;;;9.19;68.19;98733.25;4148383;28;20030;-71
2024/03/02 01:44:18;;;;;;;13.10;9.13;;;;;;;9.22;67.98;98729.41;4148330;28;20337;-71
2024/03/02 01:46:19;;;;;;;14.98;10.05;;;;;;;9.13;68.05;98722.41;4148510;28;20475;-71
2024/03/02 01:48:20;;;;;;;13.50;8.52;;;;;;;9.19;67.65;98717.25;4148767;28;20028;-71
2024/03/02 01:50:31;;;;;;;13.30;8.90;;;;;;;9.20;67.05;98718.09;4148581;28;20034;-70
2024/03/02 01:52:32;;;;;;;11.02;7.72;;;;;;;9.24;67.25;98719.41;4148198;28;20038;-71
2024/03/02 01:54:33;;;;;;;11.32;7.35;;;;;;;9.24;67.38;98713.25;4148436;28;20505;-71
2024/03/02 01:56:33;;;;;;;11.48;8.43;;;;;;;9.23;67.36;98714.25;4148283;28;20032;-72
2024/03/02 01:58:34;;;;;;;12.85;8.15;;;;;;;9.25;67.17;98709.59;4148159;28;20374;-71
2024/03/02 02:00:35;;;;;;;12.75;8.43;;;;;;;9.18;67.09;98712.91;4146936;28;20678;-70
2024/03/02 02:02:36;;;;;;;13.23;8.55;;;;;;;9.16;67.11;98701.56;4148379;28;20509;-71
2024/03/02 02:04:36;;;;;;;14.10;8.80;;;;;;;9.08;67.27;98704.25;4148139;28;20130;-70
2024/03/02 02:06:37;;;;;;;12.80;8.10;;;;;;;9.09;67.12;98711.25;4148300;28;20034;-71
2024/03/02 02:08:38;;;;;;;12.93;8.20;;;;;;;9.19;66.77;98711.91;4148279;28;20030;-70
2024/03/02 02:10:38;;;;;;;12.50;8.95;;;;;;;9.14;66.92;98716.94;4148026;28;20105;-71
2024/03/02 02:12:39;;;;;;;11.18;7.88;;;;;;;9.23;66.42;98711.59;4148001;28;20018;-70
2024/03/02 02:14:47;;;;;;;14.85;8.70;;;;;;;9.10;66.24;98707.59;4148460;28;20045;-71
2024/03/02 02:16:48;;;;;;;14.48;9.77;;;;;;;9.02;66.63;98704.94;4146370;28;20785;-71
2024/03/02 02:18:49;;;;;;;13.38;8.77;;;;;;;9.02;66.49;98705.75;4148211;28;20108;-71
2024/03/02 02:20:49;;;;;;;11.93;8.10;;;;;;;9.09;66.34;98710.44;4145885;28;20025;-71
2024/03/02 02:23:03;;;;;;;10.45;7.57;;;;;;;9.23;65.61;98707.06;4145214;28;20498;-70
2024/03/02 02:25:04;;;;;;;12.32;8.55;;;;;;;9.11;66.09;98703.09;4147005;28;20029;-71
2024/03/02 02:27:04;;;;;;;12.13;9.00;;;;;;;9.08;66.21;98708.75;4146976;28;20030;-70
2024/03/02 02:29:05;;;;;;;10.98;7.88;;;;;;;9.10;65.96;98702.25;4146832;28;20112;-71
2024/03/02 02:31:06;;;;;;;11.98;8.13;;;;;;;9.13;66.00;98701.09;4147037;28;20030;-71
2024/03/02 02:33:06;;;;;;;12.48;8.50;;;;;;;9.18;65.71;98704.09;4147092;28;20033;-70
2024/03/02 02:35:08;;;;;;;11.52;7.72;;;;;;;9.21;65.47;98696.59;4147222;28;20021;-70
2024/03/02 02:37:09;;;;;;;12.93;8.95;;;;;;;9.11;65.79;98700.44;4146833;28;20029;-71
2024/03/02 02:39:14;;;;;;;9.77;7.45;;;;;;;9.14;65.70;98690.28;4140938;28;20038;-71
2024/03/02 02:41:15;;;;;;;12.13;8.32;;;;;;;9.14;65.56;98690.28;4133759;28;20030;-72
2024/03/02 02:43:15;;;;;;;11.07;7.68;;;;;;;9.19;65.29;98679.91;4154315;28;20073;-71
2024/03/02 02:45:16;;;;;;;11.48;8.20;;;;;;;9.23;65.29;98690.25;4140734;28;20065;-71
2024/03/02 02:47:17;;;;;;;10.27;7.40;;;;;;;9.18;65.45;98688.91;4130778;28;20022;-69
2024/03/02 02:49:17;;;;;;;11.27;7.88;;;;;;;9.13;65.34;98679.75;4136268;28;20034;-70
2024/03/02 02:51:18;;;;;;;12.35;8.27;;;;;;;9.11;65.57;98682.59;4139838;28;20080;-71
2024/03/02 02:53:19;;;;;;;12.88;7.95;;;;;;;9.11;65.46;98674.59;4163048;28;20112;-71
2024/03/02 02:55:19;;;;;;;11.10;7.97;;;;;;;9.11;65.61;98671.13;4146098;28;20079;-70
2024/03/02 02:57:20;;;;;;;13.20;8.93;;;;;;;9.02;65.66;98676.44;4136678;28;20022;-71
2024/03/02 02:59:21;;;;;;;14.35;8.80;;;;;;;8.93;65.85;98672.09;4147294;28;20049;-70
2024/03/02 03:01:21;;;;;;;11.57;8.38;;;;;;;8.98;65.70;98676.94;4147471;28;20108;-71
2024/03/02 03:03:21;;;;;;;11.13;8.30;;;;;;;9.01;65.66;98676.59;4147028;28;20033;-72
2024/03/02 03:05:22;;;;;;;12.23;8.10;;;;;;;9.04;65.39;98677.09;4146757;28;20415;-70
2024/03/02 03:07:23;;;;;;;12.20;8.63;;;;;;;8.93;65.58;98674.78;4145378;28;20030;-71
2024/03/02 03:09:23;;;;;;;11.55;8.18;;;;;;;9.03;65.37;98677.28;4146990;28;20037;-71
2024/03/02 03:11:26;;;;;;;10.93;7.43;;;;;;;9.13;64.99;98679.75;4147202;28;20478;-71
2024/03/02 03:13:26;;;;;;;13.05;8.10;;;;;;;9.08;65.13;98676.78;4146998;28;20030;-71
2024/03/02 03:15:27;;;;;;;11.98;8.30;;;;;;;9.01;65.47;98684.59;4145425;28;20435;-71
2024/03/02 03:17:27;;;;;;;10.40;7.53;;;;;;;9.06;65.26;98676.94;4147277;28;20026;-70
2024/03/02 03:19:28;;;;;;;10.57;7.50;;;;;;;9.07;65.06;98681.25;4147703;28;20065;-71
2024/03/02 03:21:28;;;;;;;12.13;7.38;;;;;;;9.10;65.21;98683.59;4147169;28;20030;-71
2024/03/02 03:23:29;;;;;;;11.63;7.67;;;;;;;9.11;65.24;98684.44;4146732;28;20056;-70
2024/03/02 03:25:30;;;;;;;11.07;7.28;;;;;;;9.15;64.99;98686.59;4147891;28;20049;-69
2024/03/02 03:27:30;;;;;;;10.73;7.00;;;;;;;9.16;64.78;98687.44;4147260;28;20383;-70
2024/03/02 03:29:31;;;;;;;10.15;7.57;;;;;;;9.07;65.28;98689.25;4147389;28;20030;-71
2024/03/02 03:31:31;;;;;;;11.60;8.20;;;;;;;9.01;65.29;98681.94;4147103;28;20095;-71
2024/03/02 03:33:32;;;;;;;11.52;7.88;;;;;;;9.02;65.22;98687.09;4142753;28;20378;-71
2024/03/02 03:35:32;;;;;;;12.32;8.45;;;;;;;8.88;65.74;98693.94;4130913;28;20054;-71
2024/03/02 03:37:33;;;;;;;11.65;8.45;;;;;;;8.90;65.76;98688.47;4132422;28;20030;-71
2024/03/02 03:39:37;;;;;;;14.35;9.13;;;;;;;8.94;65.54;98687.09;4143741;28;20031;-71
2024/03/02 03:41:37;;;;;;;13.15;8.55;;;;;;;8.84;65.80;98692.63;4143804;28;20046;-70
2024/03/02 03:43:37;;;;;;;13.82;9.80;;;;;;;8.69;66.20;98695.09;4150671;28;20034;-70
2024/03/02 03:45:39;;;;;;;13.87;9.47;;;;;;;8.79;66.00;98688.78;4152769;28;20641;-70
2024/03/02 03:47:39;;;;;;;13.32;9.23;;;;;;;8.72;66.00;98689.47;4148177;28;20285;-70
2024/03/02 03:49:41;;;;;;;13.60;9.60;;;;;;;8.67;66.24;98691.78;4145784;28;20034;-70
2024/03/02 03:51:41;;;;;;;12.50;9.05;;;;;;;8.73;66.04;98693.78;4147036;28;20030;-70
2024/03/02 03:53:42;;;;;;;10.80;7.63;;;;;;;8.80;65.86;98696.59;4146805;28;20505;-70
2024/03/02 03:55:42;;;;;;;10.02;6.88;;;;;;;8.85;65.58;98683.63;4147028;28;20041;-70
2024/03/02 03:57:43;;;;;;;11.43;7.53;;;;;;;8.88;65.49;98682.44;4147311;28;20045;-69
2024/03/02 03:59:44;;;;;;;10.00;7.25;;;;;;;8.88;65.42;98685.94;4147637;28;20034;-70
2024/03/02 04:01:45;;;;;;;13.35;8.93;;;;;;;8.80;65.78;98688.59;4153207;28;20044;-70
2024/03/02 04:03:45;;;;;;;13.50;9.80;;;;;;;8.72;66.00;98691.28;4157182;28;20054;-70
2024/03/02 04:05:45;;;;;;;12.00;8.57;;;;;;;8.75;66.10;98688.28;4157298;28;20123;-69
2024/03/02 04:07:46;;;;;;;12.55;9.00;;;;;;;8.67;66.21;98685.63;4156061;28;20382;-71
2024/03/02 04:09:46;;;;;;;12.67;9.03;;;;;;;8.73;66.04;98682.28;4159580;28;20061;-70
2024/03/02 04:11:46;;;;;;;15.88;9.40;;;;;;;8.69;65.99;98681.78;4161018;28;20026;-70
2024/03/02 04:13:47;;;;;;;11.98;8.30;;;;;;;8.70;65.93;98690.59;4160980;28;20068;-70
2024/03/02 04:15:47;;;;;;;13.00;8.73;;;;;;;8.62;66.02;98687.94;4161171;28;20229;-70
2024/03/02 04:17:48;;;;;;;13.65;9.68;;;;;;;8.44;66.56;98691.53;4162471;28;20056;-70
2024/03/02 04:19:48;;;;;;;14.10;9.00;;;;;;;8.51;66.29;98691.75;4162631;28;20068;-69
2024/03/02 04:21:48;;;;;;;13.35;8.82;;;;;;;8.49;66.21;98694.59;4164764;28;20025;-70
2024/03/02 04:23:49;;;;;;;13.67;9.93;;;;;;;8.35;66.69;98693.38;4161014;28;20057;-69
2024/03/02 04:25:54;;;;;;;15.65;9.15;;;;;;;8.35;66.71;98692.53;4163622;28;20260;-70
2024/03/02 04:27:55;;;;;;;15.27;10.18;;;;;;;8.22;67.15;98687.69;4157631;28;20030;-70
2024/03/02 04:29:59;;;;;;;14.88;10.02;;;;;;;8.12;67.48;98693.16;4154566;28;20041;-71
2024/03/02 04:32:07;;;;;;;16.30;10.50;;;;;;;7.91;68.43;98704.22;4167266;28;20022;-72
2024/03/02 04:34:08;;;;;;;15.85;10.65;;;;;;;8.03;68.03;98696.78;4149806;28;20104;-70
2024/03/02 04:36:09;;;;;;;15.65;11.23;;;;;;;7.84;68.84;98701.34;4146722;28;20076;-70
2024/03/02 04:38:10;;;;;;;15.43;11.00;;;;;;;7.97;68.08;98696.44;4146669;28;20025;-70
2024/03/02 04:40:11;;;;;;;15.10;10.07;;;;;;;7.98;67.82;98699.94;4146683;28;20083;-70
2024/03/02 04:42:11;;;;;;;15.02;10.23;;;;;;;7.94;67.90;98707.38;4144948;28;20041;-70
2024/03/02 04:44:12;;;;;;;15.07;9.73;;;;;;;7.90;67.72;98697.22;4147211;28;20033;-71
2024/03/02 04:46:12;;;;;;;17.50;11.13;;;;;;;7.82;67.93;98692.72;4149709;28;20105;-70
2024/03/02 04:48:14;;;;;;;14.88;9.30;;;;;;;7.85;68.13;98697.69;4149115;28;20112;-70
2024/03/02 04:50:14;;;;;;;13.45;9.68;;;;;;;7.85;67.99;98692.38;4149272;28;20037;-70
2024/03/02 04:52:15;;;;;;;14.63;9.80;;;;;;;7.85;67.85;98696.88;4147814;28;20025;-70
2024/03/02 04:54:16;;;;;;;14.63;9.95;;;;;;;7.78;68.03;98699.34;4149250;28;20649;-69
2024/03/02 04:58:23;;;;;;;15.75;11.05;;;;;;;7.53;68.76;98717.84;4149390;28;20275;-70
2024/03/02 05:00:23;;;;;;;15.23;10.50;;;;;;;7.56;68.69;98712.19;4149365;28;20113;-70
2024/03/02 05:02:23;;;;;;;15.27;11.30;;;;;;;7.40;69.02;98704.13;4147205;28;20088;-70
2024/03/02 05:04:24;;;;;;;20.43;11.67;;;;;;;7.27;69.32;98702.75;4149297;28;20745;-70
2024/03/02 05:06:24;;;;;;;16.90;11.57;;;;;;;7.22;69.60;98699.72;4148969;28;20133;-69
2024/03/02 05:08:25;;;;;;;18.15;11.93;;;;;;;7.15;69.81;98701.34;4149027;28;20026;-70
2024/03/02 05:10:26;;;;;;;16.73;11.63;;;;;;;7.10;70.08;98700.94;4148743;28;20056;-70
2024/03/02 05:14:43;;;;;;;16.27;10.68;;;;;;;7.27;69.58;98699.25;4148907;28;20040;-71
2024/03/02 05:16:43;;;;;;;18.77;11.65;;;;;;;7.25;69.69;98702.06;4147577;28;20049;-70
2024/03/02 05:18:44;;;;;;;17.63;9.63;;;;;;;7.33;69.49;98694.13;4148588;28;20030;-70
2024/03/02 05:20:44;;;;;;;14.68;10.07;;;;;;;7.39;69.31;98697.16;4149077;28;20032;-70
2024/03/02 05:22:45;;;;;;;15.93;11.02;;;;;;;7.40;69.43;98701.47;4148389;28;20116;-70
2024/03/02 05:24:45;;;;;;;25.02;12.48;;;;;;;7.24;70.16;98702.19;4147268;28;20044;-70
2024/03/02 05:26:45;;;;;;;16.65;11.05;;;;;;;7.32;69.91;98708.41;4148756;28;20469;-70
2024/03/02 05:28:46;;;;;;;16.33;11.17;;;;;;;7.29;69.70;98703.41;4148910;28;20025;-70
2024/03/02 05:30:47;;;;;;;16.02;11.35;;;;;;;7.30;69.73;98705.06;4148626;28;20338;-70
2024/03/02 05:32:47;;;;;;;17.73;10.18;;;;;;;7.34;69.52;98709.09;4147924;28;20025;-70
2024/03/02 05:34:48;;;;;;;13.10;9.77;;;;;;;7.38;69.27;98709.63;4148006;28;20025;-70
2024/03/02 05:36:48;;;;;;;18.05;11.07;;;;;;;7.16;69.84;98708.31;4148319;28;20026;-69
2024/03/02 05:38:49;;;;;;;17.08;10.77;;;;;;;7.15;69.92;98717.28;4148510;28;20552;-70
2024/03/02 05:40:49;;;;;;;17.10;11.13;;;;;;;7.04;70.12;98710.38;4148444;28;20068;-71
2024/03/02 05:42:50;;;;;;;15.60;10.57;;;;;;;6.89;70.58;98710.13;4148207;28;20084;-69
2024/03/02 05:44:50;;;;;;;20.77;12.43;;;;;;;6.84;70.61;98710.59;4148546;28;20275;-70
2024/03/02 05:46:51;;;;;;;17.00;11.00;;;;;;;6.80;70.87;98713.69;4147994;28;20025;-70
2024/03/02 05:48:51;;;;;;;16.03;10.47;;;;;;;6.69;70.92;98715.59;4148575;28;20053;-69
2024/03/02 05:50:52;;;;;;;18.10;11.48;;;;;;;6.71;70.90;98723.41;4148594;28;20064;-70
2024/03/02 05:52:52;;;;;;;16.35;11.18;;;;;;;6.76;70.67;98722.94;4148125;28;20376;-70
2024/03/02 05:54:52;;;;;;;15.37;10.23;;;;;;;6.74;70.58;98724.91;4148331;28;20548;-70
2024/03/02 05:56:53;;;;;;;15.18;10.95;;;;;;;6.70;70.74;98717.28;4148147;28;20741;-70
2024/03/02 05:59:12;;;;;;;13.50;9.77;;;;;;;6.75;70.58;98723.94;4147103;28;20481;-70
2024/03/02 06:01:13;;;;;;;14.55;9.23;;;;;;;6.79;70.16;98722.66;4146697;28;20029;-70
2024/03/02 06:03:13;;;;;;;13.75;9.23;;;;;;;6.79;70.19;98715.50;4148199;28;20034;-70
2024/03/02 06:05:15;;;;;;;14.73;10.13;;;;;;;6.74;70.31;98725.75;4148386;28;20148;-70
2024/03/02 06:07:15;;;;;;;15.18;10.23;;;;;;;6.64;70.34;98719.69;4147985;28;20030;-70
2024/03/02 06:09:16;;;;;;;16.13;11.23;;;;;;;6.56;70.71;98723.09;4148303;28;20532;-70
2024/03/02 06:11:18;;;;;;;15.93;10.70;;;;;;;6.56;70.95;98728.41;4148138;28;20556;-70
2024/03/02 06:13:19;;;;;;;16.70;11.20;;;;;;;6.67;70.57;98730.84;4153702;28;20038;-69
2024/03/02 06:15:19;;;;;;;15.13;10.63;;;;;;;6.48;71.17;98733.63;4156174;28;20204;-70
2024/03/02 06:17:20;;;;;;;20.95;11.85;;;;;;;6.58;71.03;98731.75;4158561;28;20021;-70
2024/03/02 06:19:21;;;;;;;16.75;10.98;;;;;;;6.59;70.95;98738.75;4148297;28;20033;-69
2024/03/02 06:21:21;;;;;;;17.75;11.43;;;;;;;6.64;70.83;98738.28;4146728;28;20049;-70
2024/03/02 06:23:21;;;;;;;16.15;10.38;;;;;;;6.71;70.63;98748.13;4147704;28;20030;-69
2024/03/02 06:25:22;;;;;;;19.05;10.73;;;;;;;6.74;70.53;98748.81;4147914;28;20028;-70
2024/03/02 06:27:22;;;;;;;18.57;11.10;;;;;;;6.67;70.48;98759.22;4147607;28;20034;-70
2024/03/02 06:29:23;;;;;;;15.20;11.23;;;;;;;6.58;70.82;98762.75;4147200;28;20030;-71
2024/03/02 06:31:23;;;;;;;20.70;11.38;;;;;;;6.37;71.44;98767.38;4147969;28;20031;-70
2024/03/02 06:33:23;;;;;;;18.13;12.30;;;;;;;6.14;72.29;98756.34;4147398;28;20034;-69
2024/03/02 06:35:24;;;;;;;18.08;12.65;;;;;;;5.97;73.12;98755.25;4147144;28;20736;-70
2024/03/02 06:37:24;;;;;;;17.90;12.73;;;;;;;6.05;72.68;98755.38;4146950;28;20053;-69
2024/03/02 06:39:25;;;;;;;21.17;13.65;;;;;;;5.82;73.53;98757.56;4147701;28;20026;-69
2024/03/02 06:41:26;;;;;;;17.55;12.35;;;;;;;5.75;73.86;98749.38;4147436;28;20026;-70
2024/03/02 06:43:27;;;;;;;17.77;12.90;;;;;;;5.86;73.68;98742.19;4147277;28;20104;-69
2024/03/02 06:45:27;;;;;;;18.33;12.32;;;;;;;5.89;73.60;98748.06;4147697;28;20064;-69
2024/03/02 06:47:28;;;;;;;18.98;13.07;;;;;;;5.85;73.72;98751.16;4147464;28;20021;-70
2024/03/02 06:49:28;;;;;;;18.63;12.38;;;;;;;5.91;73.64;98755.84;4146172;28;20030;-70
2024/03/02 06:51:28;;;;;;;16.30;11.87;;;;;;;5.98;73.42;98750.81;4148721;28;20044;-70
2024/03/02 06:53:30;;;;;;;15.10;11.13;;;;;;;6.06;73.09;98749.09;4147836;28;20056;-70
2024/03/02 06:55:30;;;;;;;17.98;11.98;;;;;;;6.17;72.62;98749.91;4147945;28;20033;-70
2024/03/02 06:57:31;;;;;;;23.17;17.13;;;;;;;6.07;72.85;98745.47;4148630;28;20079;-70
2024/03/02 06:59:33;;;;;;;16.38;10.88;;;;;;;6.14;72.68;98760.81;4147873;28;20033;-69
2024/03/02 07:01:34;;;;;;;16.70;11.63;;;;;;;6.16;72.70;98759.69;4148125;28;20032;-70
2024/03/02 07:03:35;;;;;;;17.38;10.30;;;;;;;6.33;72.55;98760.69;4147141;28;20054;-69
2024/03/02 07:05:35;;;;;;;14.88;10.50;;;;;;;6.47;72.01;98761.16;4147171;28;20045;-70
2024/03/02 07:07:36;;;;;;;16.25;11.23;;;;;;;6.44;71.94;98762.31;4146712;28;20037;-70
2024/03/02 07:09:37;;;;;;;20.70;10.68;;;;;;;6.50;71.92;98768.84;4147798;28;20479;-70
2024/03/02 07:11:37;;;;;;;16.10;11.10;;;;;;;6.65;71.53;98769.16;4148218;28;20504;-70
2024/03/02 07:13:37;;;;;;;16.88;11.38;;;;;;;6.59;71.89;98769.75;4146977;28;20517;-70
2024/03/02 07:16:40;;;;;;;15.82;11.18;;;;;;;6.72;71.49;98765.75;4146236;28;20519;-70
2024/03/02 07:18:08;;;;;;;14.95;10.57;;;;;;;6.87;71.10;98767.88;4146474;28;20045;-71
2024/03/02 07:20:09;;;;;;;14.45;9.73;;;;;;;6.92;70.91;98757.63;4147367;28;20055;-70
2024/03/02 07:22:10;;;;;;;14.27;10.13;;;;;;;6.91;70.71;98758.59;4147144;28;20404;-69
2024/03/02 07:24:13;;;;;;;16.27;11.50;;;;;;;6.85;70.98;98748.59;4145833;28;20029;-70
2024/03/02 07:26:14;;;;;;;17.27;11.52;;;;;;;6.78;71.39;98748.38;4142078;28;20757;-70
2024/03/02 07:28:16;;;;;;;17.70;11.98;;;;;;;6.78;71.58;98750.19;4151344;28;20045;-70
2024/03/02 07:30:16;;;;;;;15.68;11.88;;;;;;;6.82;71.54;98755.06;4161964;28;20026;-72
2024/03/02 07:32:17;;;;;;;19.70;11.63;;;;;;;6.90;71.36;98761.41;4164983;28;20037;-70
2024/03/02 07:34:17;;;;;;;15.32;11.13;;;;;;;6.91;71.48;98765.75;4164968;28;20017;-69
2024/03/02 07:36:19;;;;;;;13.98;10.75;;;;;;;7.02;71.23;98761.03;4153043;28;20060;-70
2024/03/02 07:38:20;;;;;;;16.85;10.77;;;;;;;7.19;70.79;98763.81;4151385;28;20030;-70
2024/03/02 07:40:20;;;;;;;13.45;9.32;;;;;;;7.33;70.39;98759.75;4159994;28;20055;-70
2024/03/02 07:42:21;;;;;;;15.20;10.98;;;;;;;7.28;70.38;98757.56;4151911;28;20046;-70
2024/03/02 07:44:21;;;;;;;15.10;9.97;;;;;;;7.39;70.14;98760.97;4147145;28;20364;-70
2024/03/02 07:46:22;;;;;;;17.77;10.38;;;;;;;7.43;70.32;98762.34;4146870;28;21031;-70
2024/03/02 07:48:22;;;;;;;17.33;10.73;;;;;;;7.52;70.07;98768.53;4146597;28;20034;-70
2024/03/02 07:50:23;;;;;;;15.73;10.43;;;;;;;7.54;69.99;98764.75;4148177;28;20703;-70
2024/03/02 07:52:23;;;;;;;16.05;10.63;;;;;;;7.56;70.10;98767.22;4146551;28;20029;-70
2024/03/02 07:54:24;;;;;;;16.88;10.88;;;;;;;7.60;70.00;98763.28;4146942;28;20139;-69
2024/03/02 07:56:24;;;;;;;19.80;10.75;;;;;;;7.69;69.70;98762.34;4146698;28;20033;-70
2024/03/02 07:58:25;;;;;;;18.20;11.20;;;;;;;7.68;69.59;98767.78;4146753;28;20026;-69
2024/03/02 08:00:27;;;;;;;16.35;11.30;;;;;;;7.71;69.73;98775.47;4146958;28;20025;-69
2024/03/02 08:02:27;;;;;;;15.07;10.60;;;;;;;7.77;69.57;98777.47;4146513;28;20045;-69
2024/03/02 08:04:28;;;;;;;17.20;11.38;;;;;;;7.81;69.59;98777.00;4146859;28;20514;-70
2024/03/02 08:06:28;;;;;;;17.30;11.48;;;;;;;7.91;69.39;98776.91;4145315;28;20072;-70
2024/03/02 08:08:29;;;;;;;15.13;10.70;;;;;;;7.96;69.42;98768.44;4146667;28;20092;-71
2024/03/02 08:10:30;;;;;;;13.45;9.82;;;;;;;8.12;69.02;98762.38;4146591;28;20084;-70
2024/03/02 08:12:30;;;;;;;15.65;9.98;;;;;;;8.21;68.89;98771.22;4146206;28;20076;-71
2024/03/02 08:14:30;;;;;;;16.88;9.88;;;;;;;8.19;68.90;98767.88;4146904;28;20030;-70
2024/03/02 08:16:31;;;;;;;17.13;10.98;;;;;;;8.25;68.99;98762.75;4147558;28;20026;-70
2024/03/02 08:18:32;;;;;;;14.77;9.98;;;;;;;8.41;68.82;98766.44;4147441;28;20505;-70
2024/03/02 08:20:33;;;;;;;;;;;;;;;8.42;68.56;98760.13;4162109;28;20017;-69
2024/03/02 08:22:33;;;;;;;15.60;10.83;;;;;;;8.42;68.85;98763.63;4157835;28;19945;-70
2024/03/02 08:24:34;;;;;;;17.13;10.03;;;;;;;8.48;68.74;98764.84;4158090;28;20036;-70
2024/03/02 08:26:35;;;;;;;14.55;10.15;;;;;;;8.63;68.34;98750.88;4157566;28;20264;-71
2024/03/02 08:28:42;;;;;;;13.18;9.13;;;;;;;8.76;68.15;98758.38;4158397;28;20108;-70
2024/03/02 08:30:42;;;;;;;14.68;10.10;;;;;;;8.83;67.86;98754.91;4156870;28;20091;-70
2024/03/02 08:32:43;;;;;;;12.48;8.65;;;;;;;8.97;67.55;98757.94;4157501;28;20534;-71
2024/03/02 08:34:43;;;;;;;12.52;8.43;;;;;;;9.14;67.07;98759.59;4158449;28;20112;-71
2024/03/02 08:36:44;;;;;;;14.20;8.68;;;;;;;9.23;66.82;98744.41;4157676;28;20064;-70
2024/03/02 08:38:45;;;;;;;12.90;7.82;;;;;;;9.34;66.47;98757.41;4158110;28;20092;-70
2024/03/02 08:40:46;;;;;;;12.27;8.70;;;;;;;9.37;66.31;98756.22;4158879;28;20176;-70
2024/03/02 08:42:47;;;;;;;14.52;9.20;;;;;;;9.42;66.11;98761.91;4158191;28;20567;-70
2024/03/02 08:44:47;;;;;;;11.55;7.80;;;;;;;9.51;65.67;98763.56;4158751;28;20022;-70
2024/03/02 08:46:48;;;;;;;12.90;8.80;;;;;;;9.62;65.43;98770.38;4163761;28;20045;-70
2024/03/02 08:48:49;;;;;;;15.02;8.93;;;;;;;9.64;65.39;98762.19;4176808;28;20037;-70
2024/03/02 08:50:49;;;;;;;12.60;8.40;;;;;;;9.73;65.33;98755.81;4165944;28;20034;-70
2024/03/02 08:52:50;;;;;;;14.13;9.73;;;;;;;9.91;64.97;98754.78;4151541;28;20096;-69
2024/03/02 08:54:50;;;;;;;12.82;8.82;;;;;;;10.10;64.54;98748.19;4167246;28;20033;-70
2024/03/02 08:56:51;;;;;;;13.50;9.30;;;;;;;10.09;64.21;98750.03;4160149;28;20033;-70
2024/03/02 08:58:52;;;;;;;16.85;9.63;;;;;;;9.92;63.86;98751.94;4158642;28;20040;-70
2024/03/02 09:00:53;;;;;;;17.80;11.65;;;;;;;10.13;63.41;98751.34;4157696;28;20096;-70
2024/03/02 09:02:53;;;;;;;15.02;9.77;;;;;;;10.30;63.14;98749.44;4159762;28;20018;-70
2024/03/02 09:04:54;;;;;;;16.65;9.95;;;;;;;10.56;62.54;98740.31;4157524;28;20398;-70
2024/03/02 09:06:55;;;;;;;15.02;9.55;;;;;;;10.61;62.13;98745.97;4157513;28;20034;-70
2024/03/02 09:08:56;;;;;;;14.30;9.80;;;;;;;10.86;61.78;98747.66;4157118;28;20034;-70
2024/03/02 09:10:56;;;;;;;15.38;9.88;;;;;;;11.28;60.95;98740.13;4157198;28;20123;-69
2024/03/02 09:12:57;;;;;;;16.40;9.20;;;;;;;11.61;60.73;98745.97;4166166;28;20474;-70
2024/03/02 09:14:57;;;;;;;11.48;8.05;;;;;;;12.07;59.85;98736.13;4157234;28;20485;-70
2024/03/02 09:16:58;;;;;;;12.77;9.00;;;;;;;12.24;59.06;98731.34;4149507;28;20022;-71
2024/03/02 09:18:58;;;;;;;15.07;9.23;;;;;;;12.11;59.17;98724.00;4136676;28;20030;-71
2024/03/02 09:20:59;;;;;;;12.43;7.70;;;;;;;12.41;58.37;98724.78;4157343;28;20026;-71
2024/03/02 09:22:59;;;;;;;13.25;7.72;;;;;;;12.79;58.05;98729.09;4156599;28;20100;-71
2024/03/02 09:25:02;;;;;;;12.07;7.70;;;;;;;13.10;56.83;98725.25;4163540;28;20165;-70
2024/03/02 09:27:03;;;;;;;11.50;8.05;;;;;;;13.34;56.34;98721.31;4172531;28;20034;-71
2024/03/02 09:29:04;;;;;;;10.38;6.50;;;;;;;13.89;54.79;98716.09;4168343;28;20049;-71
2024/03/02 09:31:04;;;;;;;10.07;6.82;;;;;;;14.37;53.97;98719.78;4174161;28;20048;-71